Aérodrome :
LOGIN :

S'inscrire | Disclaimer

   EN    FR    IT 

 










Légende :    VFR   VFR Marginal   IFR   IFR Intensif   IFR Très Intensif
Visi : 
Plafond : 
>= 8 km
>= 3000ft
5 à 8 km
1000 à 3000 ft
1500m à 5 km
500 à 1000 ft
800 à 1500m
200 à 500 ft
< 800m
< 200 ft
Symboles :   Orages  Brouillard  Fortes neiges  Fortes précipitations  Vent > 20 kt
SIGMETs :   Divers  Orages  Givrage  Turbulence  Onde Orograph.  Cendres Volcan.







- Altitude de l'aérodrome : 1363 ft


ETIC - Grafenwohr Army Air Field

DERNIER METAR :
  • 200956Z AUTO 20005KT 9999 CLR 26/14 A2999 RMK AO2 SLP140 T02620143 $

METARs EXPIRÉS :
  • 200856Z AUTO 00000KT 9999 CLR 25/16 A3001 RMK AO2 SLP147 T02450162 58001 $
  • 200756Z AUTO 00000KT 9999 CLR 23/16 A3001 RMK AO2 SLP149 T02270158 $
  • 200656Z AUTO 00000KT 9999 CLR 20/18 A3001 RMK AO2 SLP151 T01950180 $

TAF TAF ETIC
Valide du 20 à 06h jusqu'au 21 à 12h UTC


200606Z 2006/2112 20009KT 9999 SCT060 QNH2994INS
BECMG 2010/2011 21009KT 8000 -SHRA BKN050 QNH2993INS
TEMPO 2012/2018 21010G20KT 6000 -TSRA BKN060CB
BECMG 2018/2019 27009KT 9999 NSW BKN060 QNH2992INS TX29/2014Z TN15/2104Z
Pas de NOTAMs connus pour ce terrain.



MET'MAP, la Météo Aéronautique d'un coup d'oeil ! - Copyright ORBIFLY Décembre 2007 - Disclaimer

ORBIFLY MET'MAP TEAM :

Programmation & Développement : Alexandra Zaïnal
Conception & Développement : Baudouin d'Aumeries
Co-Programmation & Développement : Marc-Olivier Méhu
Soutien technique & logistique : Manuel Goepfert

Contact : metmap@orbifly.com




SOURCES & CREDITS :

   NOAA